sensor_id;sensor_type;location;lat;lon;timestamp;P1;durP1;ratioP1;P2;durP2;ratioP2
62947;SDS011;51940;52.126;-0.994;2022-08-06T20:45:19;5.80;;;2.90;;
62947;SDS011;51940;52.126;-0.994;2022-08-06T20:47:48;5.50;;;2.30;;
62947;SDS011;51940;52.126;-0.994;2022-08-06T20:50:14;4.70;;;2.40;;
62947;SDS011;51940;52.126;-0.994;2022-08-06T20:52:41;6.80;;;2.30;;
62947;SDS011;51940;52.126;-0.994;2022-08-06T20:55:08;4.60;;;2.50;;
62947;SDS011;51940;52.126;-0.994;2022-08-06T20:57:35;4.50;;;2.30;;
62947;SDS011;51940;52.126;-0.994;2022-08-06T21:00:02;3.50;;;2.30;;
62947;SDS011;51940;52.126;-0.994;2022-08-06T21:02:50;4.20;;;2.50;;
62947;SDS011;51940;52.126;-0.994;2022-08-06T21:05:17;4.60;;;2.70;;
62947;SDS011;51940;52.126;-0.994;2022-08-06T21:07:47;3.60;;;2.80;;
62947;SDS011;51940;52.126;-0.994;2022-08-06T21:10:14;5.10;;;3.40;;
62947;SDS011;51940;52.126;-0.994;2022-08-06T21:12:39;4.00;;;3.40;;
62947;SDS011;51940;52.126;-0.994;2022-08-06T21:15:05;7.00;;;3.60;;
62947;SDS011;51940;52.126;-0.994;2022-08-06T21:17:31;5.00;;;3.10;;
62947;SDS011;51940;52.126;-0.994;2022-08-06T21:19:57;3.90;;;2.80;;
62947;SDS011;51940;52.126;-0.994;2022-08-06T21:22:22;5.50;;;3.00;;
62947;SDS011;51940;52.126;-0.994;2022-08-06T21:24:48;9.90;;;3.20;;
62947;SDS011;51940;52.126;-0.994;2022-08-06T21:27:13;6.80;;;3.40;;
62947;SDS011;51940;52.126;-0.994;2022-08-06T21:29:40;6.70;;;3.80;;
62947;SDS011;51940;52.126;-0.994;2022-08-06T21:32:06;4.50;;;3.30;;
62947;SDS011;51940;52.126;-0.994;2022-08-06T21:34:32;5.30;;;2.90;;
62947;SDS011;51940;52.126;-0.994;2022-08-06T21:36:58;3.80;;;3.00;;
62947;SDS011;51940;52.126;-0.994;2022-08-06T21:39:25;7.20;;;3.70;;
62947;SDS011;51940;52.126;-0.994;2022-08-06T21:41:53;7.50;;;3.70;;
62947;SDS011;51940;52.126;-0.994;2022-08-06T21:44:19;8.40;;;4.10;;
62947;SDS011;51940;52.126;-0.994;2022-08-06T21:46:45;5.10;;;3.90;;
62947;SDS011;51940;52.126;-0.994;2022-08-06T21:49:11;7.00;;;4.00;;
62947;SDS011;51940;52.126;-0.994;2022-08-06T21:51:37;6.40;;;4.20;;
62947;SDS011;51940;52.126;-0.994;2022-08-06T21:54:05;6.40;;;4.00;;
62947;SDS011;51940;52.126;-0.994;2022-08-06T21:56:31;6.00;;;3.50;;
62947;SDS011;51940;52.126;-0.994;2022-08-06T21:58:57;6.80;;;4.40;;
62947;SDS011;51940;52.126;-0.994;2022-08-06T22:01:24;7.60;;;5.30;;
62947;SDS011;51940;52.126;-0.994;2022-08-06T22:03:52;9.80;;;6.80;;
62947;SDS011;51940;52.126;-0.994;2022-08-06T22:06:20;9.30;;;8.00;;
62947;SDS011;51940;52.126;-0.994;2022-08-06T22:08:47;9.80;;;6.20;;
62947;SDS011;51940;52.126;-0.994;2022-08-06T22:11:14;8.60;;;6.00;;
62947;SDS011;51940;52.126;-0.994;2022-08-06T22:13:40;7.30;;;5.20;;
62947;SDS011;51940;52.126;-0.994;2022-08-06T22:16:06;7.70;;;4.70;;
62947;SDS011;51940;52.126;-0.994;2022-08-06T22:18:31;6.20;;;3.90;;
62947;SDS011;51940;52.126;-0.994;2022-08-06T22:20:58;6.10;;;4.20;;
62947;SDS011;51940;52.126;-0.994;2022-08-06T22:23:24;10.70;;;4.40;;
62947;SDS011;51940;52.126;-0.994;2022-08-06T22:25:50;7.10;;;4.80;;
62947;SDS011;51940;52.126;-0.994;2022-08-06T22:28:16;9.40;;;4.90;;
62947;SDS011;51940;52.126;-0.994;2022-08-06T22:30:41;9.80;;;5.00;;
62947;SDS011;51940;52.126;-0.994;2022-08-06T22:33:13;7.40;;;5.50;;
62947;SDS011;51940;52.126;-0.994;2022-08-06T22:35:44;10.10;;;5.40;;
62947;SDS011;51940;52.126;-0.994;2022-08-06T22:38:11;10.80;;;5.00;;
62947;SDS011;51940;52.126;-0.994;2022-08-06T22:40:39;7.90;;;4.90;;
62947;SDS011;51940;52.126;-0.994;2022-08-06T22:43:07;6.90;;;4.50;;
62947;SDS011;51940;52.126;-0.994;2022-08-06T22:45:35;6.90;;;4.80;;
62947;SDS011;51940;52.126;-0.994;2022-08-06T22:48:02;8.70;;;6.90;;
62947;SDS011;51940;52.126;-0.994;2022-08-06T22:50:29;20.50;;;14.10;;
62947;SDS011;51940;52.126;-0.994;2022-08-06T22:52:55;15.20;;;12.20;;
62947;SDS011;51940;52.126;-0.994;2022-08-06T22:55:21;10.10;;;8.40;;
62947;SDS011;51940;52.126;-0.994;2022-08-06T22:57:47;11.40;;;7.50;;
62947;SDS011;51940;52.126;-0.994;2022-08-06T23:00:13;10.30;;;6.70;;
62947;SDS011;51940;52.126;-0.994;2022-08-06T23:02:39;12.10;;;6.50;;
62947;SDS011;51940;52.126;-0.994;2022-08-06T23:05:05;11.10;;;6.50;;
62947;SDS011;51940;52.126;-0.994;2022-08-06T23:07:31;9.90;;;7.00;;
62947;SDS011;51940;52.126;-0.994;2022-08-06T23:09:57;10.10;;;6.60;;
62947;SDS011;51940;52.126;-0.994;2022-08-06T23:12:22;11.80;;;6.90;;
62947;SDS011;51940;52.126;-0.994;2022-08-06T23:14:48;9.60;;;7.00;;
62947;SDS011;51940;52.126;-0.994;2022-08-06T23:17:14;10.00;;;7.00;;
62947;SDS011;51940;52.126;-0.994;2022-08-06T23:19:40;14.40;;;7.50;;
62947;SDS011;51940;52.126;-0.994;2022-08-06T23:22:09;14.60;;;7.30;;
62947;SDS011;51940;52.126;-0.994;2022-08-06T23:24:35;15.30;;;7.70;;
62947;SDS011;51940;52.126;-0.994;2022-08-06T23:27:02;12.60;;;6.90;;
62947;SDS011;51940;52.126;-0.994;2022-08-06T23:29:31;13.10;;;7.10;;
62947;SDS011;51940;52.126;-0.994;2022-08-06T23:32:01;10.30;;;6.80;;
62947;SDS011;51940;52.126;-0.994;2022-08-06T23:34:27;9.90;;;6.70;;
62947;SDS011;51940;52.126;-0.994;2022-08-06T23:36:53;11.50;;;6.80;;
62947;SDS011;51940;52.126;-0.994;2022-08-06T23:39:18;10.40;;;7.50;;
62947;SDS011;51940;52.126;-0.994;2022-08-06T23:41:44;10.80;;;6.70;;
62947;SDS011;51940;52.126;-0.994;2022-08-06T23:44:10;13.00;;;7.00;;
62947;SDS011;51940;52.126;-0.994;2022-08-06T23:46:35;8.20;;;6.10;;
62947;SDS011;51940;52.126;-0.994;2022-08-06T23:49:01;12.90;;;7.20;;
62947;SDS011;51940;52.126;-0.994;2022-08-06T23:51:27;14.40;;;6.90;;
62947;SDS011;51940;52.126;-0.994;2022-08-06T23:53:52;9.80;;;6.50;;
62947;SDS011;51940;52.126;-0.994;2022-08-06T23:56:18;10.90;;;6.30;;
62947;SDS011;51940;52.126;-0.994;2022-08-06T23:58:44;10.20;;;5.80;;
